createdAt,value
2019-05-14T00:01:45.627Z,81.14
2019-05-14T00:04:13.034Z,81.13
2019-05-14T00:06:41.732Z,81.26
2019-05-14T00:09:09.326Z,82.40
2019-05-14T00:11:36.751Z,84.74
2019-05-14T00:14:04.267Z,86.16
2019-05-14T00:16:31.701Z,87.63
2019-05-14T00:18:59.060Z,89.25
2019-05-14T00:21:26.476Z,90.16
2019-05-14T00:23:53.893Z,89.87
2019-05-14T00:26:21.806Z,90.52
2019-05-14T00:28:51.272Z,90.15
2019-05-14T00:31:18.663Z,90.91
2019-05-14T00:33:46.118Z,90.74
2019-05-14T00:36:13.544Z,90.80
2019-05-14T00:38:41.998Z,90.27
2019-05-14T00:41:11.118Z,90.12
2019-05-14T00:43:38.728Z,89.91
2019-05-14T00:46:06.084Z,89.70
2019-05-14T00:48:33.513Z,89.52
2019-05-14T00:51:02.213Z,89.29
2019-05-14T00:53:32.074Z,88.91
2019-05-14T00:55:59.367Z,88.81
2019-05-14T00:58:26.784Z,89.07
2019-05-14T01:00:54.152Z,89.01
2019-05-14T01:03:21.885Z,89.46
2019-05-14T01:05:51.947Z,88.55
2019-05-14T01:08:18.771Z,88.51
2019-05-14T01:10:46.145Z,88.14
2019-05-14T01:13:13.585Z,88.10
2019-05-14T01:15:41.596Z,87.95
2019-05-14T01:18:11.241Z,87.39
2019-05-14T01:20:38.426Z,87.06
2019-05-14T01:23:05.872Z,85.42
2019-05-14T01:25:33.290Z,85.46
2019-05-14T01:28:02.154Z,86.13
2019-05-14T01:30:31.957Z,86.39
2019-05-14T01:33:01.542Z,86.58
2019-05-14T01:35:28.948Z,86.26
2019-05-14T01:37:56.361Z,87.28
2019-05-14T01:40:23.796Z,86.95
2019-05-14T01:42:52.218Z,87.38
2019-05-14T01:45:27.070Z,87.89
2019-05-14T01:47:51.898Z,88.67
2019-05-14T01:50:18.567Z,89.32
2019-05-14T01:52:45.996Z,89.27
2019-05-14T01:55:13.629Z,88.95
2019-05-14T01:57:42.494Z,89.56
2019-05-14T02:00:11.632Z,90.06
2019-05-14T02:02:41.569Z,90.27
2019-05-14T02:05:08.604Z,90.28
2019-05-14T02:07:36.016Z,91.03
2019-05-14T02:10:04.912Z,91.81
2019-05-14T02:12:32.352Z,92.27
2019-05-14T02:15:01.898Z,91.85
2019-05-14T02:17:29.093Z,92.42
2019-05-14T02:19:56.529Z,93.46
2019-05-14T02:22:23.949Z,93.77
2019-05-14T02:24:51.922Z,94.32
2019-05-14T02:27:21.375Z,93.93
2019-05-14T02:29:49.058Z,94.11
2019-05-14T02:32:18.438Z,94.79
2019-05-14T02:34:45.786Z,94.80
2019-05-14T02:37:13.192Z,95.33
2019-05-14T02:39:41.290Z,95.73
2019-05-14T02:42:09.686Z,95.58
2019-05-14T02:44:40.836Z,95.17
2019-05-14T02:47:09.598Z,94.54
2019-05-14T02:49:39.332Z,94.37
2019-05-14T02:52:05.451Z,94.45
2019-05-14T02:54:32.888Z,94.92
2019-05-14T02:57:00.482Z,95.08
2019-05-14T02:59:30.626Z,96.49
2019-05-14T03:01:59.099Z,97.16
2019-05-14T03:04:29.818Z,98.45
2019-05-14T03:06:59.078Z,99.96
2019-05-14T03:09:25.255Z,100.00
2019-05-14T03:11:52.762Z,100.00
2019-05-14T03:14:20.150Z,100.00
2019-05-14T03:16:49.477Z,100.00
2019-05-14T03:19:19.675Z,100.00
2019-05-14T03:21:49.841Z,100.00
2019-05-14T03:24:15.572Z,100.00
2019-05-14T03:26:43.013Z,100.00
2019-05-14T03:29:10.593Z,100.00
2019-05-14T03:31:42.886Z,100.00
2019-05-14T03:34:12.656Z,100.00
2019-05-14T03:36:42.239Z,100.00
2019-05-14T03:39:10.161Z,100.00
2019-05-14T03:41:39.352Z,100.00
2019-05-14T03:44:05.154Z,100.00
2019-05-14T03:46:45.784Z,100.00
2019-05-14T03:49:01.912Z,100.00
2019-05-14T03:51:29.957Z,99.99
2019-05-14T03:54:06.462Z,100.00
2019-05-14T03:56:29.679Z,100.00
2019-05-14T03:58:59.655Z,100.00
2019-05-14T04:01:29.355Z,100.00
2019-05-14T04:03:55.609Z,100.00
2019-05-14T04:06:25.272Z,100.00
2019-05-14T04:08:53.353Z,100.00
2019-05-14T04:11:23.066Z,100.00
2019-05-14T04:13:54.062Z,100.00
2019-05-14T04:16:22.929Z,100.00
2019-05-14T04:18:53.435Z,100.00
2019-05-14T04:21:21.336Z,100.00
2019-05-14T04:23:50.893Z,100.00
2019-05-14T04:26:21.652Z,100.00
2019-05-14T04:28:50.393Z,100.00
2019-05-14T04:31:19.364Z,100.00
2019-05-14T04:33:49.944Z,100.00
2019-05-14T04:36:19.594Z,100.00
2019-05-14T04:38:51.409Z,100.00
2019-05-14T04:41:19.526Z,100.00
2019-05-14T04:43:49.647Z,100.00
2019-05-14T04:46:15.514Z,100.00
2019-05-14T04:48:44.017Z,100.00
2019-05-14T04:51:11.834Z,100.00
2019-05-14T04:53:39.734Z,100.00
2019-05-14T04:56:09.855Z,100.00
2019-05-14T04:58:40.455Z,100.00
2019-05-14T05:01:09.553Z,100.00
2019-05-14T05:03:35.404Z,100.00
2019-05-14T05:06:02.882Z,100.00
2019-05-14T05:08:31.054Z,100.00
2019-05-14T05:11:00.013Z,99.90
2019-05-14T05:13:29.146Z,99.05
2019-05-14T05:15:59.408Z,98.44
2019-05-14T05:18:29.142Z,98.56
2019-05-14T05:20:58.169Z,97.77
2019-05-14T05:23:25.093Z,98.66
2019-05-14T05:25:52.542Z,97.50
2019-05-14T05:28:19.949Z,97.22
2019-05-14T05:30:49.108Z,96.92
2019-05-14T05:33:18.644Z,96.33
2019-05-14T05:35:48.490Z,96.21
2019-05-14T05:38:15.325Z,96.99
2019-05-14T05:40:42.753Z,95.71
2019-05-14T05:43:10.138Z,94.21
2019-05-14T05:45:38.150Z,93.81
2019-05-14T05:48:08.069Z,93.93
2019-05-14T05:50:34.946Z,93.62
2019-05-14T05:53:02.311Z,94.10
2019-05-14T05:55:29.701Z,94.02
2019-05-14T05:57:58.710Z,93.01
2019-05-14T06:00:39.922Z,92.01
2019-05-14T06:03:10.913Z,91.86
2019-05-14T06:05:38.946Z,91.86
2019-05-14T06:08:08.550Z,92.10
2019-05-14T06:10:35.801Z,92.21
2019-05-14T06:13:03.202Z,91.67
2019-05-14T06:15:44.498Z,91.31
2019-05-14T06:18:14.085Z,91.86
2019-05-14T06:20:29.477Z,92.15
2019-05-14T06:22:58.824Z,92.31
2019-05-14T06:25:26.244Z,92.18
2019-05-14T06:27:54.089Z,93.87
2019-05-14T06:30:41.053Z,89.09
2019-05-14T06:33:09.282Z,89.07
2019-05-14T06:35:39.376Z,86.52
2019-05-14T06:38:08.736Z,84.12
2019-05-14T06:40:35.671Z,83.72
2019-05-14T06:43:03.068Z,82.41
2019-05-14T06:45:30.528Z,81.91
2019-05-14T06:47:59.318Z,80.98
2019-05-14T06:50:28.473Z,79.84
2019-05-14T06:52:58.118Z,79.81
2019-05-14T06:55:25.489Z,80.34
2019-05-14T06:57:52.899Z,80.70
2019-05-14T07:00:20.867Z,81.44
2019-05-14T07:02:49.083Z,81.52
2019-05-14T07:05:18.844Z,81.69
2019-05-14T07:07:49.076Z,81.82
2019-05-14T07:10:15.799Z,81.14
2019-05-14T07:12:43.197Z,82.39
2019-05-14T07:15:12.333Z,81.92
2019-05-14T07:17:39.780Z,81.56
2019-05-14T07:20:08.854Z,80.18
2019-05-14T07:22:39.060Z,78.12
2019-05-14T07:25:09.514Z,78.05
2019-05-14T07:27:39.012Z,75.68
2019-05-14T07:30:09.004Z,75.59
2019-05-14T07:32:39.527Z,76.80
2019-05-14T07:35:09.093Z,75.94
2019-05-14T07:37:39.336Z,74.86
2019-05-14T07:40:08.589Z,74.28
2019-05-14T07:42:38.401Z,74.78
2019-05-14T07:45:09.376Z,74.63
2019-05-14T07:47:38.807Z,75.06
2019-05-14T07:50:08.443Z,75.50
2019-05-14T07:52:35.494Z,75.46
2019-05-14T07:55:03.216Z,76.26
2019-05-14T07:57:30.617Z,76.12
2019-05-14T07:59:58.795Z,74.69
2019-05-14T08:02:28.829Z,74.70
2019-05-14T08:04:57.947Z,75.63
2019-05-14T08:07:25.129Z,76.46
2019-05-14T08:09:52.564Z,76.83
2019-05-14T08:12:19.991Z,76.01
2019-05-14T08:15:09.104Z,74.99
2019-05-14T08:17:18.861Z,75.26
2019-05-14T08:19:46.159Z,75.52
2019-05-14T08:22:13.593Z,74.98
2019-05-14T08:24:40.977Z,74.78
2019-05-14T08:27:08.674Z,75.18
2019-05-14T08:29:37.511Z,74.35
2019-05-14T08:32:05.521Z,75.36
2019-05-14T08:34:33.096Z,74.54
2019-05-14T08:37:03.888Z,75.52
2019-05-14T08:39:29.948Z,76.58
2019-05-14T08:42:03.061Z,75.38
2019-05-14T08:44:29.187Z,73.77
2019-05-14T08:46:58.838Z,73.05
2019-05-14T08:49:38.880Z,72.39
2019-05-14T08:51:54.750Z,71.73
2019-05-14T08:54:22.289Z,70.32
2019-05-14T08:56:49.726Z,69.77
2019-05-14T08:59:19.452Z,67.97
2019-05-14T09:01:58.716Z,66.85
2019-05-14T09:04:15.773Z,66.66
2019-05-14T09:06:43.223Z,66.09
2019-05-14T09:09:10.652Z,65.67
2019-05-14T09:11:44.690Z,64.78
2019-05-14T09:14:10.904Z,64.24
2019-05-14T09:16:46.169Z,64.10
2019-05-14T09:19:08.631Z,59.02
2019-05-14T09:21:35.670Z,59.38
2019-05-14T09:24:03.100Z,60.57
2019-05-14T09:26:30.549Z,61.23
2019-05-14T09:28:58.702Z,60.20
2019-05-14T09:31:26.291Z,60.68
2019-05-14T09:33:53.755Z,60.45
2019-05-14T09:36:24.074Z,60.07
2019-05-14T09:38:50.714Z,60.89
2019-05-14T09:41:18.693Z,58.98
2019-05-14T09:43:48.795Z,58.89
2019-05-14T09:46:18.305Z,56.26
2019-05-14T09:48:45.118Z,57.76
2019-05-14T09:51:12.487Z,58.04
2019-05-14T09:53:39.967Z,58.46
2019-05-14T09:56:09.076Z,59.40
2019-05-14T09:58:38.811Z,61.17
2019-05-14T10:01:08.317Z,59.68
2019-05-14T10:03:35.329Z,61.51
2019-05-14T10:06:02.738Z,61.11
2019-05-14T10:08:30.168Z,61.20
2019-05-14T10:11:00.244Z,59.52
2019-05-14T10:13:28.194Z,60.67
2019-05-14T10:15:55.864Z,59.00
2019-05-14T10:18:23.350Z,59.12
2019-05-14T10:20:50.744Z,59.97
2019-05-14T10:23:18.848Z,59.12
2019-05-14T10:25:46.711Z,59.58
2019-05-14T10:28:14.064Z,59.76
2019-05-14T10:30:41.508Z,59.74
2019-05-14T10:33:14.708Z,59.16
2019-05-14T10:35:39.099Z,58.78
2019-05-14T10:38:08.809Z,58.89
2019-05-14T10:40:38.420Z,58.63
2019-05-14T10:43:05.632Z,58.69
2019-05-14T10:45:33.077Z,58.62
2019-05-14T10:48:00.507Z,58.32
2019-05-14T10:50:28.987Z,58.72
2019-05-14T10:52:59.179Z,59.08
2019-05-14T10:55:27.786Z,59.44
2019-05-14T10:57:55.133Z,60.40
2019-05-14T11:00:23.143Z,60.32
2019-05-14T11:02:50.585Z,60.18
2019-05-14T11:05:18.825Z,59.32
2019-05-14T11:07:48.160Z,60.58
2019-05-14T11:10:19.149Z,58.83
2019-05-14T11:12:45.310Z,59.45
2019-05-14T11:15:14.064Z,57.99
2019-05-14T11:17:41.512Z,58.17
2019-05-14T11:20:09.086Z,58.62
2019-05-14T11:22:38.744Z,58.09
2019-05-14T11:25:09.265Z,58.47
2019-05-14T11:27:38.634Z,58.18
2019-05-14T11:30:08.797Z,59.87
2019-05-14T11:32:38.325Z,60.53
2019-05-14T11:35:11.731Z,62.38
2019-05-14T11:37:35.081Z,60.63
2019-05-14T11:40:02.988Z,61.58
2019-05-14T11:42:31.379Z,59.66
2019-05-14T11:44:59.237Z,59.26
2019-05-14T11:47:26.658Z,59.45
2019-05-14T11:49:54.032Z,59.12
2019-05-14T11:52:21.474Z,59.41
2019-05-14T11:54:49.525Z,59.46
2019-05-14T11:57:19.151Z,61.12
2019-05-14T11:59:46.340Z,61.38
2019-05-14T12:02:13.757Z,60.90
2019-05-14T12:04:41.131Z,61.90
2019-05-14T12:07:09.571Z,63.47
2019-05-14T12:09:39.093Z,63.34
2019-05-14T12:12:11.556Z,62.59
2019-05-14T12:14:37.976Z,62.27
2019-05-14T12:17:05.362Z,63.20
2019-05-14T12:19:32.778Z,62.46
2019-05-14T12:22:07.665Z,61.91
2019-05-14T12:24:29.603Z,60.94
2019-05-14T12:26:58.576Z,61.45
2019-05-14T12:29:29.212Z,60.34
2019-05-14T12:31:58.479Z,59.73
2019-05-14T12:34:25.494Z,60.37
2019-05-14T12:36:52.858Z,59.78
2019-05-14T12:39:20.321Z,58.90
2019-05-14T12:41:49.026Z,59.11
2019-05-14T12:44:19.352Z,59.24
2019-05-14T12:46:48.757Z,59.07
2019-05-14T12:49:15.454Z,60.85
2019-05-14T12:51:43.028Z,63.41
2019-05-14T12:54:10.439Z,64.98
2019-05-14T12:56:39.075Z,66.60
2019-05-14T12:59:06.714Z,66.32
2019-05-14T13:01:34.068Z,66.11
2019-05-14T13:04:01.518Z,62.96
2019-05-14T13:06:29.465Z,63.07
2019-05-14T13:08:58.587Z,65.05
2019-05-14T13:11:26.234Z,65.57
2019-05-14T13:13:53.660Z,65.32
2019-05-14T13:16:21.029Z,65.78
2019-05-14T13:18:49.896Z,67.06
2019-05-14T13:21:19.149Z,67.22
2019-05-14T13:23:48.738Z,66.79
2019-05-14T13:26:18.760Z,66.62
2019-05-14T13:28:50.289Z,66.25
2019-05-14T13:31:14.994Z,63.75
2019-05-14T13:33:42.389Z,63.50
2019-05-14T13:36:09.845Z,63.57
2019-05-14T13:38:39.678Z,63.29
2019-05-14T13:41:08.713Z,62.84
2019-05-14T13:43:38.756Z,63.83
2019-05-14T13:46:05.673Z,63.98
2019-05-14T13:48:33.174Z,65.95
2019-05-14T13:51:00.748Z,65.33
2019-05-14T13:53:29.521Z,65.33
2019-05-14T13:55:58.007Z,65.90
2019-05-14T13:58:28.402Z,63.80
2019-05-14T14:00:54.886Z,62.48
2019-05-14T14:03:22.313Z,62.13
2019-05-14T14:05:50.049Z,62.22
2019-05-14T14:08:19.355Z,62.35
2019-05-14T14:10:52.950Z,61.44
2019-05-14T14:13:16.236Z,60.62
2019-05-14T14:15:43.671Z,62.78
2019-05-14T14:18:11.135Z,62.29
2019-05-14T14:20:39.446Z,62.01
2019-05-14T14:23:18.882Z,61.55
2019-05-14T14:25:39.287Z,60.50
2019-05-14T14:28:05.824Z,60.93
2019-05-14T14:30:33.289Z,60.40
2019-05-14T14:33:01.317Z,59.94
2019-05-14T14:35:30.408Z,59.33
2019-05-14T14:37:59.182Z,58.23
2019-05-14T14:40:26.782Z,60.16
2019-05-14T14:42:54.218Z,61.06
2019-05-14T14:45:22.056Z,60.56
2019-05-14T14:47:49.951Z,61.48
2019-05-14T14:50:19.423Z,61.49
2019-05-14T14:52:49.589Z,61.44
2019-05-14T14:55:19.170Z,61.89
2019-05-14T14:57:46.313Z,62.76
2019-05-14T15:00:15.816Z,62.19
2019-05-14T15:02:43.219Z,61.91
2019-05-14T15:05:14.101Z,62.41
2019-05-14T15:07:41.041Z,61.99
2019-05-14T15:10:09.485Z,60.91
2019-05-14T15:12:39.971Z,61.31
2019-05-14T15:15:06.419Z,61.99
2019-05-14T15:17:33.931Z,61.83
2019-05-14T15:20:01.462Z,62.72
2019-05-14T15:22:30.938Z,62.59
2019-05-14T15:24:58.696Z,62.69
2019-05-14T15:27:28.297Z,63.33
2019-05-14T15:29:55.570Z,63.32
2019-05-14T15:32:23.062Z,63.84
2019-05-14T15:34:50.777Z,63.98
2019-05-14T15:37:19.015Z,64.81
2019-05-14T15:39:48.884Z,64.96
2019-05-14T15:42:19.048Z,65.54
2019-05-14T15:44:52.207Z,66.41
2019-05-14T15:47:14.749Z,66.35
2019-05-14T15:49:42.303Z,66.82
2019-05-14T15:52:09.750Z,67.73
2019-05-14T15:54:46.306Z,67.29
2019-05-14T15:57:09.005Z,66.91
2019-05-14T15:59:35.922Z,67.07
2019-05-14T16:02:03.455Z,67.59
2019-05-14T16:04:30.892Z,67.35
2019-05-14T16:06:58.704Z,67.61
2019-05-14T16:09:28.835Z,67.07
2019-05-14T16:11:55.694Z,67.81
2019-05-14T16:14:23.109Z,67.22
2019-05-14T16:16:50.559Z,67.63
2019-05-14T16:19:19.029Z,68.09
2019-05-14T16:21:46.727Z,68.20
2019-05-14T16:24:14.222Z,68.36
2019-05-14T16:26:41.635Z,68.39
2019-05-14T16:29:09.136Z,68.84
2019-05-14T16:31:42.882Z,69.28
2019-05-14T16:34:09.262Z,68.74
2019-05-14T16:36:40.917Z,68.42
2019-05-14T16:39:05.960Z,69.83
2019-05-14T16:41:33.386Z,69.62
2019-05-14T16:44:00.927Z,69.66
2019-05-14T16:46:28.869Z,69.44
2019-05-14T16:48:58.241Z,69.81
2019-05-14T16:51:26.829Z,70.10
2019-05-14T16:53:54.188Z,70.46
2019-05-14T16:56:21.607Z,70.33
2019-05-14T16:58:49.065Z,70.40
2019-05-14T17:01:19.017Z,70.72
2019-05-14T17:03:48.945Z,70.90
2019-05-14T17:06:15.168Z,70.77
2019-05-14T17:08:42.568Z,71.24
2019-05-14T17:11:10.019Z,71.29
2019-05-14T17:13:38.165Z,71.76
2019-05-14T17:16:08.320Z,71.81
2019-05-14T17:18:35.166Z,71.30
2019-05-14T17:21:02.605Z,72.08
2019-05-14T17:23:30.043Z,72.82
2019-05-14T17:25:58.012Z,73.09
2019-05-14T17:28:25.542Z,72.64
2019-05-14T17:30:53.025Z,72.09
2019-05-14T17:33:21.194Z,72.71
2019-05-14T17:35:48.648Z,73.06
2019-05-14T17:38:18.324Z,73.84
2019-05-14T17:40:45.532Z,74.76
2019-05-14T17:43:12.948Z,75.34
2019-05-14T17:45:40.313Z,76.32
2019-05-14T17:48:07.769Z,76.46
2019-05-14T17:50:35.317Z,75.01
2019-05-14T17:53:02.942Z,75.48
2019-05-14T17:55:43.680Z,76.43
2019-05-14T17:58:00.362Z,76.86
2019-05-14T18:00:28.760Z,76.66
2019-05-14T18:02:56.301Z,77.05
2019-05-14T18:05:23.741Z,77.61
2019-05-14T18:07:51.114Z,77.93
2019-05-14T18:10:19.513Z,78.52
2019-05-14T18:12:48.290Z,78.04
2019-05-14T18:15:16.073Z,76.05
2019-05-14T18:17:43.451Z,75.47
2019-05-14T18:20:11.605Z,75.66
2019-05-14T18:22:42.175Z,75.46
2019-05-14T18:25:08.509Z,74.99
2019-05-14T18:27:38.768Z,75.00
2019-05-14T18:30:08.909Z,74.62
2019-05-14T18:32:35.814Z,74.48
2019-05-14T18:35:04.861Z,75.25
2019-05-14T18:37:32.293Z,75.37
2019-05-14T18:39:59.689Z,76.08
2019-05-14T18:42:29.561Z,76.82
2019-05-14T18:44:58.881Z,77.29
2019-05-14T18:47:25.785Z,76.77
2019-05-14T18:49:53.225Z,76.70
2019-05-14T18:52:20.693Z,76.48
2019-05-14T18:54:48.515Z,75.74
2019-05-14T18:57:18.104Z,75.84
2019-05-14T18:59:45.421Z,76.15
2019-05-14T19:02:12.841Z,76.15
2019-05-14T19:04:40.322Z,75.33
2019-05-14T19:07:07.707Z,75.65
2019-05-14T19:09:35.128Z,75.53
2019-05-14T19:12:02.589Z,75.85
2019-05-14T19:14:30.057Z,76.43
2019-05-14T19:16:58.510Z,76.63
2019-05-14T19:19:26.188Z,75.84
2019-05-14T19:21:53.614Z,76.58
2019-05-14T19:24:21.076Z,76.69
2019-05-14T19:26:49.734Z,76.70
2019-05-14T19:29:18.569Z,76.09
2019-05-14T19:31:48.138Z,76.37
2019-05-14T19:34:15.594Z,76.86
2019-05-14T19:36:43.070Z,77.47
2019-05-14T19:39:10.487Z,77.52
2019-05-14T19:41:38.941Z,78.05
2019-05-14T19:44:08.684Z,78.48
2019-05-14T19:46:38.445Z,78.00
2019-05-14T19:49:05.376Z,78.14
2019-05-14T19:51:32.699Z,78.50
2019-05-14T19:54:00.134Z,78.79
2019-05-14T19:56:29.334Z,79.04
2019-05-14T19:58:56.913Z,78.86
2019-05-14T20:01:24.425Z,78.50
2019-05-14T20:03:51.853Z,78.91
2019-05-14T20:06:19.320Z,80.16
2019-05-14T20:08:48.202Z,80.86
2019-05-14T20:11:15.753Z,81.51
2019-05-14T20:13:43.198Z,81.61
2019-05-14T20:16:10.622Z,81.50
2019-05-14T20:18:38.462Z,82.12
2019-05-14T20:21:05.940Z,81.87
2019-05-14T20:23:33.378Z,81.40
2019-05-14T20:26:00.842Z,80.62
2019-05-14T20:28:28.265Z,80.33
2019-05-14T20:30:58.524Z,80.19
2019-05-14T20:33:25.129Z,79.37
2019-05-14T20:35:53.186Z,78.50
2019-05-14T20:38:20.573Z,78.24
2019-05-14T20:40:48.668Z,77.74
2019-05-14T20:43:18.547Z,76.68
2019-05-14T20:45:48.617Z,75.75
2019-05-14T20:48:15.362Z,74.21
2019-05-14T20:50:42.895Z,72.14
2019-05-14T20:53:11.705Z,74.97
2019-05-14T20:55:39.203Z,75.77
2019-05-14T20:58:08.016Z,77.42
2019-05-14T21:00:35.557Z,77.31
2019-05-14T21:03:02.987Z,77.05
2019-05-14T21:05:30.431Z,77.89
2019-05-14T21:07:58.985Z,78.11
2019-05-14T21:10:29.101Z,78.20
2019-05-14T21:12:58.046Z,78.11
2019-05-14T21:15:25.338Z,77.47
2019-05-14T21:17:52.886Z,76.70
2019-05-14T21:20:20.325Z,76.39
2019-05-14T21:22:48.460Z,75.93
2019-05-14T21:25:18.443Z,76.01
2019-05-14T21:27:51.299Z,75.27
2019-05-14T21:30:15.207Z,75.37
2019-05-14T21:32:42.897Z,76.15
2019-05-14T21:35:10.697Z,77.38
2019-05-14T21:37:39.462Z,78.37
2019-05-14T21:40:09.150Z,80.21
2019-05-14T21:42:38.399Z,83.01
2019-05-14T21:45:09.508Z,85.28
2019-05-14T21:47:38.456Z,88.37
2019-05-14T21:50:05.658Z,90.18
2019-05-14T21:52:33.115Z,92.79
2019-05-14T21:55:00.514Z,94.48
2019-05-14T21:57:28.413Z,95.57
2019-05-14T21:59:55.994Z,94.54
2019-05-14T22:02:27.495Z,93.71
2019-05-14T22:04:52.756Z,95.65
2019-05-14T22:07:20.276Z,95.34
2019-05-14T22:09:48.780Z,94.19
2019-05-14T22:12:20.344Z,94.00
2019-05-14T22:14:48.058Z,93.21
2019-05-14T22:17:15.144Z,90.92
2019-05-14T22:19:42.588Z,91.70
2019-05-14T22:22:10.118Z,91.08
2019-05-14T22:24:38.355Z,91.94
2019-05-14T22:27:05.922Z,90.79
2019-05-14T22:29:33.314Z,91.46
2019-05-14T22:32:00.753Z,94.00
2019-05-14T22:34:28.640Z,93.58
2019-05-14T22:36:58.153Z,95.23
2019-05-14T22:39:25.492Z,96.55
2019-05-14T22:41:52.938Z,98.00
2019-05-14T22:44:20.320Z,100.00
2019-05-14T22:46:49.105Z,100.00
2019-05-14T22:49:18.635Z,99.22
2019-05-14T22:51:46.030Z,98.38
2019-05-14T22:54:13.384Z,99.18
2019-05-14T22:56:40.815Z,100.00
2019-05-14T22:59:08.253Z,100.00
2019-05-14T23:01:35.662Z,100.00
2019-05-14T23:04:03.050Z,100.00
2019-05-14T23:06:30.464Z,100.00
2019-05-14T23:08:58.234Z,100.00
2019-05-14T23:11:25.866Z,100.00
2019-05-14T23:13:53.280Z,100.00
2019-05-14T23:16:33.413Z,100.00
2019-05-14T23:18:50.082Z,100.00
2019-05-14T23:21:17.541Z,100.00
2019-05-14T23:23:45.070Z,100.00
2019-05-14T23:26:12.511Z,100.00
2019-05-14T23:28:45.502Z,100.00
2019-05-14T23:31:09.197Z,100.00
2019-05-14T23:33:38.837Z,100.00
2019-05-14T23:36:05.954Z,100.00
2019-05-14T23:38:33.655Z,100.00
2019-05-14T23:41:01.091Z,100.00
2019-05-14T23:43:28.865Z,100.00
2019-05-14T23:45:58.347Z,100.00
2019-05-14T23:48:25.863Z,100.00
2019-05-14T23:50:53.268Z,100.00
2019-05-14T23:53:20.705Z,100.00
2019-05-14T23:55:48.332Z,100.00
2019-05-14T23:58:15.940Z,100.00
